Time;durP1;ratioP1;P1;durP2;ratioP2;P2;SDS_P1;SDS_P2;PMS_P1;PMS_P2;Temp;Humidity;BMP_temperature;BMP_pressure;BME280_temperature;BME280_humidity;BME280_pressure;Samples;Min_cycle;Max_cycle;Signal;HPM_P1;HPM_P2
2022/12/20 00:01:12;;;;;;;;;;;1.60;46.80;;;;;;5053700;28;19940;-79
2022/12/20 00:03:38;;;;;;;;;;;1.60;47.00;;;;;;5053822;28;19909;-80
2022/12/20 00:06:04;;;;;;;;;;;1.60;46.40;;;;;;5052678;28;19967;-80
2022/12/20 00:08:30;;;;;;;;;;;1.60;45.10;;;;;;5053348;28;19916;-79
2022/12/20 00:10:58;;;;;;;;;;;1.70;46.50;;;;;;5053591;28;19917;-80
2022/12/20 00:13:24;;;;;;;;;;;1.70;46.30;;;;;;5053651;28;19908;-79
2022/12/20 00:16:01;;;;;;;;;;;1.70;45.20;;;;;;5035306;28;20416;-80
2022/12/20 00:18:27;;;;;;;;;;;1.70;43.70;;;;;;5053526;28;19909;-80
2022/12/20 00:20:57;;;;;;;;;;;1.70;41.10;;;;;;5055345;28;19916;-80
2022/12/20 00:23:23;;;;;;;;;;;1.70;39.70;;;;;;5053732;28;19909;-79
2022/12/20 00:25:49;;;;;;;;;;;1.60;40.20;;;;;;5053744;28;20437;-79
2022/12/20 00:28:14;;;;;;;;;;;1.60;41.10;;;;;;5052886;28;19912;-79
2022/12/20 00:30:40;;;;;;;;;;;1.60;42.10;;;;;;5053784;28;19923;-79
2022/12/20 00:33:06;;;;;;;;;;;1.60;43.60;;;;;;5053142;28;19971;-80
2022/12/20 00:35:33;;;;;;;;;;;1.60;45.20;;;;;;5034139;28;20345;-80
2022/12/20 00:37:58;;;;;;;;;;;1.60;45.00;;;;;;5053291;28;19908;-80
2022/12/20 00:40:25;;;;;;;;;;;1.60;45.60;;;;;;5053232;28;19968;-80
2022/12/20 00:42:52;;;;;;;;;;;1.60;47.60;;;;;;5053611;28;19931;-80
2022/12/20 00:45:18;;;;;;;;;;;1.50;48.70;;;;;;5051337;28;19909;-80
2022/12/20 00:47:44;;;;;;;;;;;1.60;49.40;;;;;;5053062;28;20000;-79
2022/12/20 00:50:10;;;;;;;;;;;1.60;50.00;;;;;;5051873;28;20004;-80
2022/12/20 00:52:36;;;;;;;;;;;1.60;50.30;;;;;;5035280;28;19955;-79
2022/12/20 00:55:03;;;;;;;;;;;1.60;49.70;;;;;;5051108;28;19909;-80
2022/12/20 00:57:29;;;;;;;;;;;1.60;49.90;;;;;;5053170;28;19908;-80
2022/12/20 00:59:55;;;;;;;;;;;1.60;50.20;;;;;;5053457;28;20321;-80
2022/12/20 01:02:21;;;;;;;;;;;1.60;49.70;;;;;;5052431;28;19909;-80
2022/12/20 01:04:48;;;;;;;;;;;1.60;49.00;;;;;;5051768;28;20371;-80
2022/12/20 01:07:14;;;;;;;;;;;1.50;48.00;;;;;;5052647;28;20384;-80
2022/12/20 01:09:40;;;;;;;;;;;1.50;47.80;;;;;;5034623;28;20012;-79
2022/12/20 01:12:06;;;;;;;;;;;1.50;48.50;;;;;;5051632;28;19909;-79
2022/12/20 01:14:32;;;;;;;;;;;1.50;49.70;;;;;;5032920;28;19908;-80
2022/12/20 01:16:58;;;;;;;;;;;1.50;50.40;;;;;;5034720;28;20321;-80
2022/12/20 01:19:24;;;;;;;;;;;1.40;50.60;;;;;;5052628;28;19919;-80
2022/12/20 01:21:50;;;;;;;;;;;1.40;53.40;;;;;;5052920;28;19916;-79
2022/12/20 01:24:18;;;;;;;;;;;1.40;56.70;;;;;;5036850;28;19964;-79
2022/12/20 01:26:45;;;;;;;;;;;1.40;57.40;;;;;;5055731;28;19920;-79
2022/12/20 01:29:12;;;;;;;;;;;1.40;58.50;;;;;;5052888;28;19912;-80
2022/12/20 01:31:39;;;;;;;;;;;1.40;59.80;;;;;;5054040;28;19912;-80
2022/12/20 01:34:05;;;;;;;;;;;1.50;61.40;;;;;;5035097;28;19916;-79
2022/12/20 01:36:32;;;;;;;;;;;1.50;61.60;;;;;;5056426;28;20354;-79
2022/12/20 01:39:00;;;;;;;;;;;1.50;59.70;;;;;;5068235;28;19919;-80
2022/12/20 01:41:27;;;;;;;;;;;1.50;58.80;;;;;;5049334;28;19913;-79
2022/12/20 01:43:55;;;;;;;;;;;1.60;58.10;;;;;;5053077;28;19916;-79
2022/12/20 01:46:23;;;;;;;;;;;1.60;56.90;;;;;;5051617;28;20011;-80
2022/12/20 01:48:52;;;;;;;;;;;1.70;55.80;;;;;;5034447;28;19923;-80
2022/12/20 01:51:18;;;;;;;;;;;1.60;53.60;;;;;;5052208;28;20399;-80
2022/12/20 01:53:45;;;;;;;;;;;1.70;54.00;;;;;;5052675;28;20361;-80
2022/12/20 01:56:11;;;;;;;;;;;1.70;54.70;;;;;;5032671;28;19904;-80
2022/12/20 01:58:37;;;;;;;;;;;1.80;53.70;;;;;;5034411;28;19909;-79
2022/12/20 02:01:03;;;;;;;;;;;1.80;52.70;;;;;;5052034;28;19916;-80
2022/12/20 02:03:30;;;;;;;;;;;1.80;50.60;;;;;;5052419;28;19912;-80
2022/12/20 02:06:08;;;;;;;;;;;1.90;50.10;;;;;;5054710;28;19915;-80
2022/12/20 02:08:34;;;;;;;;;;;1.80;48.80;;;;;;5056845;28;20270;-79
2022/12/20 02:11:19;;;;;;;;;;;1.80;48.30;;;;;;5055985;28;19915;-80
2022/12/20 02:14:07;;;;;;;;;;;1.90;51.20;;;;;;5052757;28;19916;-79
2022/12/20 02:16:44;;;;;;;;;;;2.00;55.10;;;;;;5056053;28;20273;-80
2022/12/20 02:19:30;;;;;;;;;;;2.00;53.80;;;;;;5037141;28;20281;-79
2022/12/20 02:22:14;;;;;;;;;;;2.00;50.90;;;;;;5055199;28;19943;-80
2022/12/20 02:24:55;;;;;;;;;;;2.10;49.40;;;;;;5055234;28;19915;-79
2022/12/20 02:27:24;;;;;;;;;;;2.10;46.90;;;;;;5055418;28;19909;-79
2022/12/20 02:29:56;;;;;;;;;;;2.10;47.20;;;;;;5055105;28;20293;-79
2022/12/20 02:32:25;;;;;;;;;;;2.10;47.30;;;;;;5037101;28;19908;-80
2022/12/20 02:34:51;;;;;;;;;;;2.10;43.90;;;;;;5054841;28;19905;-80
2022/12/20 02:37:17;;;;;;;;;;;2.10;42.80;;;;;;5036867;28;19913;-80
2022/12/20 02:39:43;;;;;;;;;;;2.00;43.20;;;;;;5055237;28;19920;-79
2022/12/20 02:42:11;;;;;;;;;;;2.00;42.50;;;;;;5055201;28;19909;-79
2022/12/20 02:47:29;;;;;;;;;;;2.00;42.70;;;;;;5050147;28;19909;-80
2022/12/20 02:49:56;;;;;;;;;;;2.00;43.20;;;;;;5037226;28;19915;-79
2022/12/20 02:52:25;;;;;;;;;;;2.00;44.20;;;;;;5036670;28;20354;-80
2022/12/20 02:54:52;;;;;;;;;;;1.90;45.20;;;;;;5054433;28;19932;-80
2022/12/20 02:57:25;;;;;;;;;;;2.00;47.10;;;;;;5036060;28;19913;-80
2022/12/20 02:59:51;;;;;;;;;;;2.00;50.70;;;;;;5036811;28;19924;-79
2022/12/20 03:02:17;;;;;;;;;;;2.00;49.80;;;;;;5036400;28;19912;-79
2022/12/20 03:04:45;;;;;;;;;;;2.00;49.60;;;;;;5035720;28;19908;-79
2022/12/20 03:07:13;;;;;;;;;;;2.00;48.50;;;;;;5054415;28;19920;-79
2022/12/20 03:09:41;;;;;;;;;;;2.10;49.10;;;;;;5036181;28;19928;-79
2022/12/20 03:12:08;;;;;;;;;;;2.10;47.30;;;;;;5054515;28;19920;-79
2022/12/20 03:14:39;;;;;;;;;;;2.10;44.40;;;;;;5045723;28;19916;-79
2022/12/20 03:17:08;;;;;;;;;;;2.20;46.40;;;;;;5053628;28;19908;-80
2022/12/20 03:19:34;;;;;;;;;;;2.20;45.70;;;;;;5061362;28;19909;-79
2022/12/20 03:22:00;;;;;;;;;;;2.20;43.80;;;;;;5046563;28;19905;-79
2022/12/20 03:24:26;;;;;;;;;;;2.30;43.40;;;;;;5053588;28;19913;-79
2022/12/20 03:26:53;;;;;;;;;;;2.20;41.10;;;;;;5019585;28;19912;-78
2022/12/20 03:29:22;;;;;;;;;;;2.30;40.00;;;;;;5035350;28;19916;-79
2022/12/20 03:31:48;;;;;;;;;;;2.20;39.80;;;;;;5054785;28;19908;-79
2022/12/20 03:34:15;;;;;;;;;;;2.30;38.40;;;;;;5052001;28;20314;-79
2022/12/20 03:36:41;;;;;;;;;;;2.30;37.80;;;;;;5036005;28;19912;-79
2022/12/20 03:39:07;;;;;;;;;;;2.20;38.10;;;;;;5035811;28;20281;-79
2022/12/20 03:41:37;;;;;;;;;;;2.20;39.20;;;;;;5035718;28;19928;-79
2022/12/20 03:44:06;;;;;;;;;;;2.30;39.80;;;;;;5034197;28;19912;-79
2022/12/20 03:46:32;;;;;;;;;;;2.40;49.60;;;;;;5035598;28;20242;-79
2022/12/20 03:48:58;;;;;;;;;;;2.70;57.90;;;;;;5054163;28;19951;-79
2022/12/20 03:51:25;;;;;;;;;;;2.80;54.00;;;;;;5035273;28;20272;-79
2022/12/20 03:53:51;;;;;;;;;;;2.80;51.10;;;;;;5035195;28;19904;-79
2022/12/20 03:56:19;;;;;;;;;;;3.10;66.40;;;;;;5028154;28;19908;-79
2022/12/20 03:58:45;;;;;;;;;;;3.40;75.20;;;;;;5035968;28;19908;-79
2022/12/20 04:01:20;;;;;;;;;;;3.70;77.70;;;;;;5034981;28;20377;-79
2022/12/20 04:03:47;;;;;;;;;;;3.90;70.40;;;;;;5035442;28;19916;-79
2022/12/20 04:06:14;;;;;;;;;;;4.20;63.50;;;;;;5052476;28;19912;-79
2022/12/20 04:08:40;;;;;;;;;;;4.30;46.90;;;;;;5032558;28;19921;-79
2022/12/20 04:11:16;;;;;;;;;;;4.40;40.20;;;;;;5031947;28;19909;-79
2022/12/20 04:13:54;;;;;;;;;;;4.60;36.70;;;;;;5033941;28;20302;-79
2022/12/20 04:16:23;;;;;;;;;;;4.70;33.10;;;;;;5025057;28;19955;-79
2022/12/20 04:18:50;;;;;;;;;;;4.80;28.90;;;;;;5025958;28;19921;-79
2022/12/20 04:21:21;;;;;;;;;;;5.10;25.80;;;;;;5025763;28;19964;-79
2022/12/20 04:23:47;;;;;;;;;;;5.20;19.30;;;;;;5032794;28;19913;-79
2022/12/20 04:26:15;;;;;;;;;;;5.30;11.70;;;;;;5031150;28;19905;-79
2022/12/20 04:28:41;;;;;;;;;;;5.40;5.70;;;;;;5033317;28;19917;-80
2022/12/20 04:31:09;;;;;;;;;;;5.30;5.30;;;;;;5030056;28;19909;-80
2022/12/20 04:33:37;;;;;;;;;;;5.30;3.90;;;;;;5032049;28;19909;-79
2022/12/20 04:36:03;;;;;;;;;;;5.30;3.50;;;;;;5031399;28;20354;-79
2022/12/20 04:38:31;;;;;;;;;;;5.30;3.60;;;;;;5032105;28;19913;-79
2022/12/20 04:40:57;;;;;;;;;;;5.20;2.30;;;;;;5032046;28;19913;-78
2022/12/20 04:43:25;;;;;;;;;;;5.20;2.60;;;;;;5031775;28;19923;-78
2022/12/20 04:45:57;;;;;;;;;;;5.30;5.40;;;;;;5032391;28;19909;-78
2022/12/20 04:48:28;;;;;;;;;;;5.30;4.30;;;;;;5031262;28;20385;-78
2022/12/20 04:50:55;;;;;;;;;;;5.30;3.30;;;;;;5030713;28;19916;-78
2022/12/20 04:56:08;;;;;;;;;;;5.50;1.00;;;;;;5032466;28;19928;-78
2022/12/20 04:58:35;;;;;;;;;;;5.40;1.00;;;;;;5034169;28;19916;-78
2022/12/20 05:01:03;;;;;;;;;;;5.40;1.00;;;;;;5043985;28;19904;-78
2022/12/20 05:03:39;;;;;;;;;;;5.40;1.00;;;;;;5042862;28;19913;-78
2022/12/20 05:06:05;;;;;;;;;;;5.30;1.00;;;;;;5035982;28;19916;-78
2022/12/20 05:08:32;;;;;;;;;;;5.40;1.00;;;;;;5041153;28;19924;-78
2022/12/20 05:10:59;;;;;;;;;;;5.40;1.00;;;;;;5031528;28;19909;-78
2022/12/20 05:13:25;;;;;;;;;;;5.30;1.00;;;;;;5038400;28;20456;-79
2022/12/20 05:15:52;;;;;;;;;;;5.40;1.00;;;;;;5048599;28;19971;-78
2022/12/20 05:18:23;;;;;;;;;;;5.40;1.00;;;;;;5033696;28;19905;-78
2022/12/20 05:26:35;;;;;;;;;;;5.40;1.00;;;;;;5034669;28;19909;-79
2022/12/20 05:29:01;;;;;;;;;;;5.50;1.00;;;;;;5034368;28;19992;-79
2022/12/20 05:31:27;;;;;;;;;;;5.50;1.00;;;;;;5032928;28;20377;-79
2022/12/20 05:33:53;;;;;;;;;;;5.60;1.00;;;;;;5034581;28;19915;-79
2022/12/20 05:36:20;;;;;;;;;;;5.70;1.00;;;;;;5033972;28;19909;-79
2022/12/20 05:38:47;;;;;;;;;;;5.60;1.00;;;;;;5018166;28;19920;-79
2022/12/20 05:41:17;;;;;;;;;;;5.60;1.00;;;;;;5032914;28;19917;-78
2022/12/20 05:43:47;;;;;;;;;;;5.60;1.00;;;;;;5034637;28;19913;-79
2022/12/20 05:46:14;;;;;;;;;;;5.60;1.00;;;;;;5034046;28;19909;-79
2022/12/20 05:48:51;;;;;;;;;;;5.70;1.00;;;;;;5032946;28;19909;-79
2022/12/20 05:51:17;;;;;;;;;;;5.70;1.00;;;;;;5032666;28;19912;-78
2022/12/20 05:53:55;;;;;;;;;;;5.80;1.00;;;;;;5034597;28;19912;-79
2022/12/20 05:56:35;;;;;;;;;;;5.80;1.00;;;;;;5034484;28;19908;-79
2022/12/20 05:59:02;;;;;;;;;;;5.90;1.00;;;;;;5033860;28;19909;-79
2022/12/20 06:01:28;;;;;;;;;;;5.90;1.00;;;;;;5051393;28;19909;-78
2022/12/20 06:03:57;;;;;;;;;;;5.80;1.00;;;;;;5034370;28;19913;-79
2022/12/20 06:06:24;;;;;;;;;;;5.90;1.00;;;;;;5032753;28;19908;-79
2022/12/20 06:08:50;;;;;;;;;;;5.90;1.00;;;;;;5052263;28;19927;-79
2022/12/20 06:11:33;;;;;;;;;;;6.00;1.00;;;;;;5033041;28;19915;-78
2022/12/20 06:14:06;;;;;;;;;;;6.00;1.00;;;;;;5033416;28;20396;-79
2022/12/20 06:16:35;;;;;;;;;;;6.00;1.00;;;;;;5035999;28;19908;-86
2022/12/20 06:19:02;;;;;;;;;;;6.10;1.00;;;;;;5040506;28;19909;-80
2022/12/20 06:21:28;;;;;;;;;;;6.10;1.00;;;;;;5043593;28;19909;-86
2022/12/20 06:23:55;;;;;;;;;;;6.10;1.00;;;;;;5041491;28;19913;-86
2022/12/20 06:26:24;;;;;;;;;;;6.10;1.00;;;;;;5041285;28;20268;-86
2022/12/20 06:28:53;;;;;;;;;;;6.10;1.00;;;;;;5060449;28;19909;-85
2022/12/20 06:31:30;;;;;;;;;;;6.20;1.00;;;;;;5045136;28;20024;-86
2022/12/20 06:33:56;;;;;;;;;;;6.10;1.00;;;;;;5036795;28;19972;-86
2022/12/20 06:36:25;;;;;;;;;;;6.10;1.00;;;;;;5036020;28;19908;-84
2022/12/20 06:38:52;;;;;;;;;;;6.20;1.00;;;;;;5017449;28;19913;-85
2022/12/20 06:41:18;;;;;;;;;;;6.10;1.00;;;;;;5031703;28;19920;-86
2022/12/20 06:43:44;;;;;;;;;;;6.20;1.00;;;;;;5034746;28;19932;-85
2022/12/20 06:46:10;;;;;;;;;;;6.10;1.00;;;;;;5054135;28;19909;-86
2022/12/20 06:48:37;;;;;;;;;;;6.10;1.00;;;;;;5036175;28;19915;-85
2022/12/20 06:51:04;;;;;;;;;;;6.10;1.00;;;;;;5043431;28;19908;-86
2022/12/20 06:53:30;;;;;;;;;;;6.10;1.00;;;;;;5043018;28;19909;-85
2022/12/20 06:55:56;;;;;;;;;;;6.10;1.00;;;;;;5060708;28;19912;-85
2022/12/20 06:58:22;;;;;;;;;;;6.10;1.00;;;;;;5046103;28;19909;-86
2022/12/20 07:00:48;;;;;;;;;;;6.10;1.00;;;;;;5067351;28;19919;-86
2022/12/20 07:03:14;;;;;;;;;;;6.20;1.00;;;;;;5061655;28;19912;-87
2022/12/20 07:05:40;;;;;;;;;;;6.30;1.00;;;;;;5036635;28;19909;-86
2022/12/20 07:08:06;;;;;;;;;;;6.20;1.00;;;;;;5056961;28;19917;-86
2022/12/20 07:10:33;;;;;;;;;;;6.30;1.00;;;;;;5054607;28;19912;-84
2022/12/20 07:12:59;;;;;;;;;;;6.30;1.00;;;;;;5054997;28;19915;-84
2022/12/20 07:15:25;;;;;;;;;;;6.30;1.00;;;;;;5054375;28;19909;-84
2022/12/20 07:17:51;;;;;;;;;;;6.30;1.00;;;;;;5056060;28;19908;-84
2022/12/20 07:20:17;;;;;;;;;;;6.30;1.00;;;;;;5055490;28;19916;-84
2022/12/20 07:22:46;;;;;;;;;;;6.40;1.00;;;;;;5058209;28;19912;-84
2022/12/20 07:25:12;;;;;;;;;;;6.40;1.00;;;;;;5075338;28;19905;-83
2022/12/20 07:27:38;;;;;;;;;;;6.50;1.00;;;;;;5069734;28;19909;-84
2022/12/20 07:30:04;;;;;;;;;;;6.50;1.00;;;;;;5058998;28;19909;-84
2022/12/20 07:32:31;;;;;;;;;;;6.50;1.00;;;;;;5059090;28;20103;-84
2022/12/20 07:34:56;;;;;;;;;;;6.40;1.00;;;;;;5057231;28;19913;-83
2022/12/20 07:37:23;;;;;;;;;;;6.40;1.00;;;;;;5061103;28;19931;-81
2022/12/20 07:39:48;;;;;;;;;;;6.40;1.00;;;;;;5060599;28;19920;-83
2022/12/20 07:42:15;;;;;;;;;;;6.40;1.00;;;;;;5054525;28;19916;-84
2022/12/20 07:44:42;;;;;;;;;;;6.50;1.00;;;;;;5055797;28;19913;-80
2022/12/20 07:47:08;;;;;;;;;;;6.40;1.00;;;;;;5052062;28;19905;-78
2022/12/20 07:49:35;;;;;;;;;;;6.50;1.00;;;;;;5049960;28;19935;-84
2022/12/20 07:52:03;;;;;;;;;;;6.50;1.00;;;;;;5057284;28;19908;-85
2022/12/20 07:54:32;;;;;;;;;;;6.50;1.00;;;;;;5035077;28;19909;-85
2022/12/20 07:57:00;;;;;;;;;;;6.50;1.00;;;;;;5054767;28;19908;-84
2022/12/20 07:59:35;;;;;;;;;;;6.50;1.00;;;;;;5052051;28;20038;-84
2022/12/20 08:02:01;;;;;;;;;;;6.60;1.00;;;;;;5052573;28;19913;-84
2022/12/20 08:04:27;;;;;;;;;;;6.60;1.00;;;;;;5053495;28;19935;-84
2022/12/20 08:06:55;;;;;;;;;;;6.60;1.00;;;;;;5053560;28;19970;-84
2022/12/20 08:09:22;;;;;;;;;;;6.50;1.00;;;;;;5033794;28;19939;-84
2022/12/20 08:11:48;;;;;;;;;;;6.60;1.00;;;;;;5053669;28;19909;-83
2022/12/20 08:14:16;;;;;;;;;;;6.60;1.00;;;;;;5053097;28;19908;-86
2022/12/20 08:16:42;;;;;;;;;;;6.60;1.00;;;;;;5053643;28;19931;-84
2022/12/20 08:19:08;;;;;;;;;;;6.60;1.00;;;;;;5055125;28;20583;-84
2022/12/20 08:21:35;;;;;;;;;;;6.80;1.00;;;;;;5045647;28;20365;-83
2022/12/20 08:24:01;;;;;;;;;;;6.80;1.00;;;;;;5032548;28;19908;-84
2022/12/20 08:26:27;;;;;;;;;;;6.90;1.00;;;;;;5053651;28;19908;-84
2022/12/20 08:28:53;;;;;;;;;;;6.80;1.00;;;;;;5052562;28;19905;-85
2022/12/20 08:31:19;;;;;;;;;;;6.90;1.00;;;;;;5053862;28;20365;-85
2022/12/20 08:33:45;;;;;;;;;;;6.90;1.00;;;;;;5064359;28;19927;-85
2022/12/20 08:36:11;;;;;;;;;;;7.10;1.00;;;;;;5053632;28;19912;-84
2022/12/20 08:38:38;;;;;;;;;;;7.10;1.00;;;;;;5066105;28;19916;-84
2022/12/20 08:41:09;;;;;;;;;;;7.10;1.00;;;;;;5064780;28;19913;-84
2022/12/20 08:43:35;;;;;;;;;;;7.10;1.00;;;;;;5039424;28;19924;-85
2022/12/20 08:46:02;;;;;;;;;;;7.10;1.00;;;;;;5016989;28;19905;-84
2022/12/20 08:48:28;;;;;;;;;;;7.20;1.00;;;;;;5015082;28;19909;-84
2022/12/20 08:50:59;;;;;;;;;;;7.20;1.00;;;;;;5049071;28;20255;-85
2022/12/20 08:53:26;;;;;;;;;;;7.30;1.00;;;;;;5051728;28;19909;-84
2022/12/20 08:55:52;;;;;;;;;;;7.20;1.00;;;;;;5051290;28;19916;-85
2022/12/20 08:58:18;;;;;;;;;;;7.30;1.00;;;;;;5033316;28;19909;-85
2022/12/20 09:00:45;;;;;;;;;;;7.40;1.00;;;;;;5048093;28;19913;-85
2022/12/20 09:03:12;;;;;;;;;;;7.40;1.00;;;;;;5025313;28;19909;-82
2022/12/20 09:05:46;;;;;;;;;;;7.40;1.00;;;;;;5034742;28;19908;-84
2022/12/20 09:08:13;;;;;;;;;;;7.40;1.00;;;;;;5034654;28;19916;-77
2022/12/20 09:10:39;;;;;;;;;;;7.50;1.00;;;;;;5051881;28;19912;-84
2022/12/20 09:13:05;;;;;;;;;;;7.40;1.00;;;;;;5017627;28;19908;-80
2022/12/20 09:15:33;;;;;;;;;;;7.40;1.00;;;;;;5052111;28;20082;-85
2022/12/20 09:17:59;;;;;;;;;;;7.50;1.00;;;;;;5052358;28;19908;-85
2022/12/20 09:20:25;;;;;;;;;;;7.60;1.00;;;;;;5033216;28;19909;-83
2022/12/20 09:22:51;;;;;;;;;;;7.60;1.00;;;;;;5034367;28;20350;-83
2022/12/20 09:25:17;;;;;;;;;;;7.70;1.00;;;;;;5051781;28;19909;-83
2022/12/20 09:27:43;;;;;;;;;;;7.70;1.00;;;;;;5044067;28;20389;-83
2022/12/20 09:30:10;;;;;;;;;;;7.80;1.00;;;;;;5041064;28;19969;-84
2022/12/20 09:32:36;;;;;;;;;;;7.90;1.00;;;;;;5049696;28;19909;-84
2022/12/20 09:35:03;;;;;;;;;;;7.90;1.00;;;;;;5027850;28;19908;-84
2022/12/20 09:37:30;;;;;;;;;;;8.00;1.00;;;;;;5046678;28;20407;-84
2022/12/20 09:39:56;;;;;;;;;;;8.10;1.00;;;;;;5049125;28;19913;-83
2022/12/20 09:42:24;;;;;;;;;;;8.20;1.00;;;;;;5050556;28;20294;-84
2022/12/20 09:44:50;;;;;;;;;;;8.20;1.00;;;;;;5043076;28;20381;-85
2022/12/20 09:47:18;;;;;;;;;;;8.20;1.00;;;;;;5047846;28;19909;-83
2022/12/20 09:49:47;;;;;;;;;;;8.30;1.00;;;;;;5050117;28;19905;-84
2022/12/20 09:52:31;;;;;;;;;;;8.30;1.00;;;;;;5053973;28;19913;-80
2022/12/20 09:55:00;;;;;;;;;;;8.50;1.00;;;;;;5052824;28;19928;-84
2022/12/20 09:57:26;;;;;;;;;;;8.50;1.00;;;;;;5051436;28;19909;-83
2022/12/20 09:59:54;;;;;;;;;;;8.50;1.00;;;;;;5051001;28;19908;-83
2022/12/20 10:02:22;;;;;;;;;;;8.50;1.00;;;;;;5050906;28;20065;-84
2022/12/20 10:04:48;;;;;;;;;;;8.60;1.00;;;;;;5051743;28;20350;-83
2022/12/20 10:07:17;;;;;;;;;;;8.50;1.00;;;;;;5032806;28;19909;-80
2022/12/20 10:09:46;;;;;;;;;;;8.60;1.00;;;;;;5050743;28;19921;-83
2022/12/20 10:12:18;;;;;;;;;;;8.80;1.00;;;;;;5033676;28;19924;-84
2022/12/20 10:14:44;;;;;;;;;;;8.80;1.00;;;;;;5052234;28;19908;-84
2022/12/20 10:17:16;;;;;;;;;;;8.90;1.00;;;;;;5051809;28;19911;-83
2022/12/20 10:19:59;;;;;;;;;;;9.00;1.00;;;;;;5051211;28;20377;-84
2022/12/20 10:22:44;;;;;;;;;;;8.90;1.00;;;;;;5045485;28;19920;-85
2022/12/20 10:25:12;;;;;;;;;;;8.90;1.00;;;;;;5053923;28;19913;-83
2022/12/20 10:27:42;;;;;;;;;;;8.90;1.00;;;;;;5055403;28;19920;-82
2022/12/20 10:30:16;;;;;;;;;;;8.90;1.00;;;;;;5052778;28;19908;-82
2022/12/20 10:32:46;;;;;;;;;;;8.80;1.00;;;;;;5053722;28;19908;-83
2022/12/20 10:35:15;;;;;;;;;;;8.70;1.00;;;;;;5059048;28;20377;-82
2022/12/20 10:38:01;;;;;;;;;;;8.70;1.00;;;;;;5043386;28;19905;-82
2022/12/20 10:40:29;;;;;;;;;;;8.70;1.00;;;;;;5048192;28;19913;-82
2022/12/20 10:42:55;;;;;;;;;;;8.60;1.00;;;;;;5027119;28;20039;-82
2022/12/20 10:45:21;;;;;;;;;;;8.70;1.00;;;;;;5054546;28;19936;-82
2022/12/20 10:47:50;;;;;;;;;;;8.70;1.00;;;;;;5055656;28;19912;-83
2022/12/20 10:50:20;;;;;;;;;;;8.70;1.00;;;;;;5054114;28;19905;-79
2022/12/20 10:53:02;;;;;;;;;;;8.70;1.00;;;;;;5055444;28;20251;-84
2022/12/20 10:55:34;;;;;;;;;;;8.70;1.00;;;;;;5054797;28;19935;-83
2022/12/20 10:58:04;;;;;;;;;;;8.80;1.00;;;;;;5055423;28;19908;-83
2022/12/20 11:00:31;;;;;;;;;;;8.90;1.00;;;;;;5053660;28;20345;-83
2022/12/20 11:03:14;;;;;;;;;;;9.00;1.00;;;;;;5055181;28;20281;-84
2022/12/20 11:05:51;;;;;;;;;;;8.90;1.00;;;;;;5055180;28;20276;-83
2022/12/20 11:08:17;;;;;;;;;;;8.90;1.00;;;;;;5054868;28;19939;-80
2022/12/20 11:10:44;;;;;;;;;;;8.90;1.00;;;;;;5054828;28;20376;-83
2022/12/20 11:13:20;;;;;;;;;;;9.00;1.00;;;;;;5020724;28;19924;-83
2022/12/20 11:15:48;;;;;;;;;;;9.10;1.00;;;;;;5037536;28;19913;-84
2022/12/20 11:18:18;;;;;;;;;;;9.10;1.00;;;;;;5037139;28;19905;-83
2022/12/20 11:20:50;;;;;;;;;;;9.00;1.00;;;;;;5053896;28;19932;-82
2022/12/20 11:23:30;;;;;;;;;;;9.00;1.00;;;;;;5057076;28;19916;-84
2022/12/20 11:26:12;;;;;;;;;;;9.00;1.00;;;;;;5052952;28;19908;-83
2022/12/20 11:28:48;;;;;;;;;;;9.00;1.00;;;;;;5056487;28;20600;-83
2022/12/20 11:31:23;;;;;;;;;;;8.90;1.00;;;;;;5068966;28;19912;-84
2022/12/20 11:33:52;;;;;;;;;;;9.00;1.00;;;;;;5059755;28;19909;-83
2022/12/20 11:36:30;;;;;;;;;;;9.00;1.00;;;;;;5036729;28;19984;-80
2022/12/20 11:39:16;;;;;;;;;;;9.10;1.00;;;;;;5051711;28;20254;-82
2022/12/20 11:41:50;;;;;;;;;;;9.00;1.00;;;;;;5047992;28;19920;-82
2022/12/20 11:44:22;;;;;;;;;;;9.00;1.00;;;;;;5052195;28;19913;-83
2022/12/20 11:46:51;;;;;;;;;;;9.00;1.00;;;;;;5055069;28;20369;-83
2022/12/20 11:49:35;;;;;;;;;;;9.00;1.00;;;;;;5035331;28;19905;-83
2022/12/20 11:52:08;;;;;;;;;;;8.90;1.00;;;;;;5035969;28;19932;-83
2022/12/20 11:54:41;;;;;;;;;;;8.90;1.00;;;;;;5053936;28;19909;-83
2022/12/20 11:57:23;;;;;;;;;;;8.80;1.00;;;;;;5036294;28;19909;-83
2022/12/20 11:59:55;;;;;;;;;;;8.80;1.00;;;;;;5047216;28;19909;-83
2022/12/20 12:02:24;;;;;;;;;;;8.90;1.00;;;;;;5050838;28;19912;-82
2022/12/20 12:04:56;;;;;;;;;;;8.80;1.00;;;;;;5040552;28;19913;-83
2022/12/20 12:07:24;;;;;;;;;;;8.80;1.00;;;;;;5066744;28;19903;-80
2022/12/20 12:09:59;;;;;;;;;;;8.70;1.00;;;;;;5075311;28;19911;-83
2022/12/20 12:12:28;;;;;;;;;;;8.70;1.00;;;;;;5069313;28;19908;-83
2022/12/20 12:14:53;;;;;;;;;;;8.70;1.00;;;;;;5036863;28;19920;-82
2022/12/20 12:17:24;;;;;;;;;;;8.80;1.00;;;;;;5036435;28;19909;-84
2022/12/20 12:19:53;;;;;;;;;;;8.80;1.00;;;;;;5053255;28;19916;-83
2022/12/20 12:22:23;;;;;;;;;;;8.80;1.00;;;;;;5053261;28;19920;-83
2022/12/20 12:24:51;;;;;;;;;;;8.80;1.00;;;;;;5053527;28;19913;-83
2022/12/20 12:27:21;;;;;;;;;;;8.80;1.00;;;;;;5053658;28;19919;-83
2022/12/20 12:29:47;;;;;;;;;;;8.80;1.00;;;;;;5052579;28;19915;-84
2022/12/20 12:32:18;;;;;;;;;;;8.80;1.00;;;;;;5054994;28;19908;-83
2022/12/20 12:34:56;;;;;;;;;;;8.90;1.00;;;;;;5036849;28;19908;-83
2022/12/20 12:37:50;;;;;;;;;;;8.90;1.00;;;;;;5054198;28;19916;-83
2022/12/20 12:40:34;;;;;;;;;;;9.00;1.00;;;;;;5034631;28;20285;-83
2022/12/20 12:43:06;;;;;;;;;;;9.00;1.00;;;;;;5053524;28;20274;-83
2022/12/20 12:45:41;;;;;;;;;;;9.10;1.00;;;;;;5053107;28;20366;-83
2022/12/20 12:48:23;;;;;;;;;;;9.20;1.00;;;;;;5053099;28;19913;-84
2022/12/20 12:50:50;;;;;;;;;;;9.30;1.00;;;;;;5053130;28;19909;-83
2022/12/20 12:53:19;;;;;;;;;;;9.40;1.00;;;;;;5054170;28;20364;-84
2022/12/20 12:55:46;;;;;;;;;;;9.50;1.00;;;;;;5054201;28;20265;-83
2022/12/20 12:58:22;;;;;;;;;;;9.50;1.00;;;;;;5053977;28;19908;-84
2022/12/20 13:00:51;;;;;;;;;;;9.50;1.00;;;;;;5052875;28;20373;-83
2022/12/20 13:03:36;;;;;;;;;;;9.50;1.00;;;;;;5053149;28;19979;-85
2022/12/20 13:06:20;;;;;;;;;;;9.50;1.00;;;;;;5018646;28;19912;-84
2022/12/20 13:09:09;;;;;;;;;;;9.60;1.00;;;;;;5052056;28;19925;-84
2022/12/20 13:11:40;;;;;;;;;;;9.60;1.00;;;;;;5036612;28;19909;-84
2022/12/20 13:14:24;;;;;;;;;;;9.50;1.00;;;;;;5053012;28;20273;-84
2022/12/20 13:16:59;;;;;;;;;;;9.50;1.00;;;;;;5047834;28;19908;-84
2022/12/20 13:19:25;;;;;;;;;;;9.50;1.00;;;;;;5051037;28;19915;-84
2022/12/20 13:22:10;;;;;;;;;;;9.50;1.00;;;;;;5052338;28;19912;-84
2022/12/20 13:24:36;;;;;;;;;;;9.50;1.00;;;;;;5052363;28;19980;-85
2022/12/20 13:27:13;;;;;;;;;;;9.50;1.00;;;;;;5052323;28;19908;-84
2022/12/20 13:29:49;;;;;;;;;;;9.50;1.00;;;;;;5050980;28;20357;-84
2022/12/20 13:32:34;;;;;;;;;;;9.50;1.00;;;;;;5052343;28;19916;-84
2022/12/20 13:35:00;;;;;;;;;;;9.50;1.00;;;;;;5051358;28;19908;-84
2022/12/20 13:38:05;;;;;;;;;;;9.50;1.00;;;;;;5049234;28;19908;-84
2022/12/20 13:40:36;;;;;;;;;;;9.50;1.00;;;;;;4970170;28;19921;-85
2022/12/20 13:43:22;;;;;;;;;;;9.40;1.00;;;;;;5036781;28;19912;-84
2022/12/20 13:46:08;;;;;;;;;;;9.40;1.00;;;;;;5053457;28;20345;-82
2022/12/20 13:48:37;;;;;;;;;;;9.30;1.00;;;;;;5050436;28;19909;-83
2022/12/20 13:51:04;;;;;;;;;;;9.30;1.00;;;;;;5052324;28;20353;-83
2022/12/20 13:53:30;;;;;;;;;;;9.30;1.00;;;;;;5051302;28;20377;-83
2022/12/20 13:55:56;;;;;;;;;;;9.20;1.00;;;;;;5051905;28;19905;-81
2022/12/20 13:58:33;;;;;;;;;;;9.10;1.00;;;;;;5051186;28;19919;-82
2022/12/20 14:01:25;;;;;;;;;;;9.10;1.00;;;;;;5054930;28;19916;-82
2022/12/20 14:03:51;;;;;;;;;;;8.90;1.00;;;;;;5035776;28;19923;-82
2022/12/20 14:06:19;;;;;;;;;;;8.90;1.00;;;;;;5052938;28;19924;-81
2022/12/20 14:08:46;;;;;;;;;;;8.90;1.00;;;;;;5047984;28;19917;-80
2022/12/20 14:11:14;;;;;;;;;;;8.90;1.00;;;;;;5048834;28;19990;-79
2022/12/20 14:13:40;;;;;;;;;;;8.90;1.00;;;;;;5053554;28;19915;-80
2022/12/20 14:16:09;;;;;;;;;;;8.90;1.00;;;;;;5056072;28;19905;-80
2022/12/20 14:18:35;;;;;;;;;;;8.90;1.00;;;;;;5037276;28;19916;-81
2022/12/20 14:21:04;;;;;;;;;;;8.90;1.00;;;;;;5055696;28;19932;-81
2022/12/20 14:23:50;;;;;;;;;;;9.00;1.00;;;;;;5053789;28;19913;-81
2022/12/20 14:26:18;;;;;;;;;;;9.00;1.00;;;;;;5041433;28;19919;-81
2022/12/20 14:28:48;;;;;;;;;;;9.10;1.00;;;;;;5055419;28;20020;-81
2022/12/20 14:31:25;;;;;;;;;;;9.10;1.00;;;;;;5055691;28;19909;-83
2022/12/20 14:33:59;;;;;;;;;;;9.10;1.00;;;;;;5038558;28;19909;-81
2022/12/20 14:36:25;;;;;;;;;;;9.30;1.00;;;;;;5035282;28;19912;-81
2022/12/20 14:38:51;;;;;;;;;;;9.30;1.00;;;;;;5037243;28;19958;-84
2022/12/20 14:41:28;;;;;;;;;;;9.20;1.00;;;;;;5049692;28;19936;-84
2022/12/20 14:43:54;;;;;;;;;;;9.20;1.00;;;;;;5050095;28;19916;-85
2022/12/20 14:46:23;;;;;;;;;;;9.10;1.00;;;;;;5046243;28;19909;-85
2022/12/20 14:49:05;;;;;;;;;;;9.10;1.00;;;;;;5050329;28;19913;-85
2022/12/20 14:51:31;;;;;;;;;;;9.00;1.00;;;;;;5064666;28;19908;-84
2022/12/20 14:53:57;;;;;;;;;;;8.90;1.00;;;;;;5059116;28;19909;-85
2022/12/20 14:56:24;;;;;;;;;;;8.80;1.00;;;;;;5053836;28;20381;-85
2022/12/20 14:59:00;;;;;;;;;;;8.70;1.00;;;;;;5064886;28;19909;-84
2022/12/20 15:01:27;;;;;;;;;;;8.60;1.00;;;;;;5073933;28;19961;-80
2022/12/20 15:03:54;;;;;;;;;;;8.60;1.00;;;;;;5038509;28;19983;-84